Angle Inlet, Minnesota
Current Conditions -  °F | °C
As of 4:54 PM on Thursday 27 Nov 2014 (Local Time) from KFGN Reporting Station
Clear Clear  
Wind Chill: -16°   Ceiling: Unl
Heat Index:   Visibility: 10mi
Dew Point: -6°   Wind: 9mph
Humidity: 78%   Direction: 140°SE
Pressure: 30.27"   Gusts: NA
Location:  49.35°N, 95.08°W
Report Text: KFGN 272254Z AUTO 14008KT 10SM CLR M18/M21 A3027 RMK AO2
Loading
Personal Weather Stations






























Interactive Weather Map New forecast layout! Learn more

10-Day Weather Forecast

Advertisements
Track Severe Weather on mobile